Time;durP1;ratioP1;P1;durP2;ratioP2;P2;SDS_P1;SDS_P2;PMS_P1;PMS_P2;Temp;Humidity;BMP_temperature;BMP_pressure;BME280_temperature;BME280_humidity;BME280_pressure;Samples;Min_cycle;Max_cycle;Signal;HPM_P1;HPM_P2
2023/12/12 00:00:42;;;;;;;6.60;1.88;;;;;;;6.37;100.00;96754.19;5041727;28;20073;-61
2023/12/12 00:03:09;;;;;;;10.10;2.67;;;;;;;6.26;100.00;96755.88;5047630;28;20040;-61
2023/12/12 00:05:35;;;;;;;6.38;1.52;;;;;;;6.22;100.00;96757.41;5056600;28;20049;-61
2023/12/12 00:08:03;;;;;;;8.13;2.30;;;;;;;6.19;100.00;96757.91;5042941;28;20642;-61
2023/12/12 00:10:29;;;;;;;7.65;2.25;;;;;;;6.08;100.00;96754.22;5041900;28;20045;-61
2023/12/12 00:12:56;;;;;;;10.55;2.00;;;;;;;5.98;100.00;96760.94;5041922;28;20049;-61
2023/12/12 00:15:22;;;;;;;8.85;1.80;;;;;;;5.92;100.00;96761.09;5043257;28;20039;-61
2023/12/12 00:17:49;;;;;;;8.32;1.98;;;;;;;5.91;100.00;96754.91;5043963;28;20041;-61
2023/12/12 00:20:16;;;;;;;12.57;1.95;;;;;;;5.94;100.00;96756.31;5036543;28;20506;-61
2023/12/12 00:22:42;;;;;;;7.22;1.80;;;;;;;6.02;100.00;96750.56;5042159;28;20052;-61
2023/12/12 00:25:08;;;;;;;10.95;2.08;;;;;;;5.98;100.00;96754.78;5041407;28;20029;-61
2023/12/12 00:27:35;;;;;;;6.28;1.90;;;;;;;5.93;100.00;96762.75;5043494;28;20045;-61
2023/12/12 00:30:02;;;;;;;6.90;2.25;;;;;;;5.89;100.00;96765.06;5037733;28;20045;-61
2023/12/12 00:32:28;;;;;;;10.88;1.90;;;;;;;5.95;100.00;96766.00;5043026;28;20041;-61
2023/12/12 00:34:54;;;;;;;8.50;2.83;;;;;;;6.03;100.00;96767.50;5041308;28;20045;-61
2023/12/12 00:37:21;;;;;;;8.95;2.50;;;;;;;6.08;100.00;96770.34;5041613;28;20593;-61
2023/12/12 00:39:48;;;;;;;8.38;2.40;;;;;;;5.96;100.00;96760.38;5042180;28;20116;-61
2023/12/12 00:42:14;;;;;;;8.07;1.90;;;;;;;5.96;100.00;96764.94;5047869;28;20048;-61
2023/12/12 00:44:40;;;;;;;15.25;2.63;;;;;;;5.99;100.00;96761.78;5057997;28;20051;-61
2023/12/12 00:47:07;;;;;;;7.93;2.20;;;;;;;5.96;100.00;96767.63;5054778;28;20055;-61
2023/12/12 00:49:33;;;;;;;7.47;2.28;;;;;;;6.04;100.00;96766.50;5046635;28;20040;-61
2023/12/12 00:52:02;;;;;;;10.27;2.50;;;;;;;6.01;100.00;96773.09;5046060;28;20047;-61
2023/12/12 00:54:28;;;;;;;8.80;2.05;;;;;;;5.98;100.00;96771.69;5040715;28;20134;-61
2023/12/12 00:56:55;;;;;;;5.45;2.10;;;;;;;6.01;100.00;96772.28;5046375;28;20041;-61
2023/12/12 00:59:21;;;;;;;11.20;2.78;;;;;;;6.06;100.00;96775.94;5045055;28;20037;-61
2023/12/12 01:01:47;;;;;;;9.10;2.10;;;;;;;6.06;100.00;96775.13;5044269;28;20449;-61
2023/12/12 01:04:14;;;;;;;6.20;2.47;;;;;;;6.10;100.00;96776.28;5045628;28;20037;-61
2023/12/12 01:06:41;;;;;;;8.93;2.22;;;;;;;6.07;100.00;96757.94;5046793;28;20072;-61
2023/12/12 01:09:07;;;;;;;9.57;2.15;;;;;;;6.09;100.00;96764.69;5046620;28;20640;-61
2023/12/12 01:11:34;;;;;;;9.43;2.03;;;;;;;6.16;100.00;96771.81;5045245;28;20045;-61
2023/12/12 01:14:00;;;;;;;4.28;1.65;;;;;;;6.19;100.00;96779.41;5045889;28;20041;-61
2023/12/12 01:16:27;;;;;;;5.55;1.85;;;;;;;6.31;100.00;96777.50;5045284;28;20040;-61
2023/12/12 01:18:56;;;;;;;4.72;1.25;;;;;;;6.44;100.00;96775.56;5045463;28;20622;-61
2023/12/12 01:21:22;;;;;;;7.00;1.27;;;;;;;6.52;100.00;96772.50;5046691;28;20045;-61
2023/12/12 01:23:49;;;;;;;6.88;2.08;;;;;;;6.78;100.00;96764.88;5045450;28;20049;-61
2023/12/12 01:26:18;;;;;;;7.28;1.25;;;;;;;6.84;100.00;96771.19;5046202;28;20048;-61
2023/12/12 01:28:44;;;;;;;4.65;1.10;;;;;;;6.87;100.00;96768.00;5046081;28;20467;-61
2023/12/12 01:31:11;;;;;;;7.78;1.70;;;;;;;6.80;100.00;96759.25;5045193;28;20056;-61
2023/12/12 01:33:37;;;;;;;10.43;1.60;;;;;;;6.78;100.00;96756.81;5045823;28;20124;-61
2023/12/12 01:36:04;;;;;;;5.13;1.38;;;;;;;6.77;100.00;96741.75;5043105;28;20045;-61
2023/12/12 01:38:31;;;;;;;6.03;1.30;;;;;;;6.75;100.00;96736.59;5044118;28;20052;-61
2023/12/12 01:40:58;;;;;;;6.65;1.48;;;;;;;6.75;100.00;96735.78;5045181;28;20048;-61
2023/12/12 01:43:26;;;;;;;5.10;1.10;;;;;;;6.67;100.00;96737.00;5047452;28;20040;-61
2023/12/12 01:45:55;;;;;;;8.90;1.52;;;;;;;6.56;100.00;96738.69;5044448;28;20041;-61
2023/12/12 01:48:23;;;;;;;10.20;2.30;;;;;;;6.52;100.00;96734.84;5043975;28;20098;-61
2023/12/12 01:50:50;;;;;;;6.28;1.33;;;;;;;6.49;100.00;96746.09;5045060;28;20033;-61
2023/12/12 01:53:20;;;;;;;5.80;1.42;;;;;;;6.48;100.00;96742.59;5040614;28;20137;-61
2023/12/12 01:55:48;;;;;;;4.10;1.30;;;;;;;6.43;100.00;96749.75;5041704;28;20048;-61
2023/12/12 01:58:15;;;;;;;4.47;1.33;;;;;;;6.27;100.00;96746.78;5044528;28;20047;-64
2023/12/12 02:00:43;;;;;;;7.80;1.85;;;;;;;6.20;100.00;96749.59;5046653;28;20043;-61
2023/12/12 02:03:10;;;;;;;4.50;1.25;;;;;;;6.08;100.00;96738.88;5044643;28;20040;-61
2023/12/12 02:05:37;;;;;;;4.05;1.10;;;;;;;5.98;100.00;96739.44;5044972;28;20053;-61
2023/12/12 02:08:04;;;;;;;5.72;1.60;;;;;;;5.98;100.00;96742.13;5044122;28;20386;-61
2023/12/12 02:10:31;;;;;;;3.88;1.52;;;;;;;5.94;100.00;96740.97;5041730;28;20056;-61
2023/12/12 02:12:57;;;;;;;7.22;1.52;;;;;;;5.92;100.00;96728.84;5037595;28;20056;-61
2023/12/12 02:15:24;;;;;;;3.30;1.00;;;;;;;5.83;100.00;96728.41;5042768;28;20037;-61
2023/12/12 02:17:51;;;;;;;5.22;1.30;;;;;;;5.79;100.00;96732.63;5046901;28;20037;-61
2023/12/12 02:20:17;;;;;;;4.65;1.10;;;;;;;5.69;100.00;96714.41;5043821;28;20048;-61
2023/12/12 02:22:44;;;;;;;5.72;1.40;;;;;;;5.57;100.00;96707.19;5044131;28;20044;-61
2023/12/12 02:25:10;;;;;;;3.00;1.42;;;;;;;5.47;100.00;96701.63;5031748;28;20526;-61
2023/12/12 02:27:37;;;;;;;7.63;1.30;;;;;;;5.39;100.00;96710.03;5041585;28;20056;-61
2023/12/12 02:30:08;;;;;;;6.38;1.45;;;;;;;5.30;100.00;96705.00;5040344;28;20053;-61
2023/12/12 02:32:34;;;;;;;4.47;1.30;;;;;;;5.36;100.00;96710.47;5044298;28;20044;-61
2023/12/12 02:35:01;;;;;;;6.10;1.33;;;;;;;5.38;100.00;96714.56;5036224;28;20124;-61
2023/12/12 02:37:28;;;;;;;7.93;1.58;;;;;;;5.52;100.00;96728.56;5039191;28;20105;-61
2023/12/12 02:39:54;;;;;;;6.00;1.63;;;;;;;5.55;100.00;96722.72;5043866;28;20041;-61
2023/12/12 02:42:21;;;;;;;6.72;1.70;;;;;;;5.50;100.00;96724.50;5036577;28;20060;-61
2023/12/12 02:44:47;;;;;;;5.07;1.52;;;;;;;5.45;100.00;96717.13;5046982;28;20541;-61
2023/12/12 02:47:14;;;;;;;7.40;1.75;;;;;;;5.51;100.00;96726.13;5048561;28;20045;-61
2023/12/12 02:49:40;;;;;;;4.45;1.17;;;;;;;5.66;100.00;96717.56;5053793;28;20090;-61
2023/12/12 02:52:07;;;;;;;4.53;2.08;;;;;;;5.67;100.00;96716.50;5044271;28;20056;-61
2023/12/12 02:54:33;;;;;;;6.40;1.50;;;;;;;5.76;100.00;96725.03;5042103;28;20041;-61
2023/12/12 02:57:00;;;;;;;3.67;1.52;;;;;;;5.83;100.00;96718.47;5037452;28;20042;-61
2023/12/12 02:59:26;;;;;;;5.15;1.27;;;;;;;5.86;100.00;96709.94;5040663;28;20041;-61
2023/12/12 03:01:53;;;;;;;3.88;1.10;;;;;;;5.91;100.00;96719.16;5043751;28;20505;-61
2023/12/12 03:04:19;;;;;;;4.47;1.58;;;;;;;5.86;100.00;96709.94;5045772;28;20504;-61
2023/12/12 03:06:46;;;;;;;5.57;1.70;;;;;;;5.82;100.00;96713.34;5043149;28;20037;-61
2023/12/12 03:09:12;;;;;;;6.40;1.55;;;;;;;5.80;100.00;96715.44;5044680;28;20049;-61
2023/12/12 03:11:39;;;;;;;7.82;1.73;;;;;;;5.81;100.00;96723.28;5051383;28;20040;-61
2023/12/12 03:14:05;;;;;;;4.60;1.25;;;;;;;5.86;100.00;96719.84;5044431;28;20040;-61
2023/12/12 03:16:32;;;;;;;4.68;1.50;;;;;;;5.89;100.00;96705.97;5043277;28;20079;-61
2023/12/12 03:18:59;;;;;;;5.78;1.33;;;;;;;5.88;100.00;96700.81;5042081;28;20067;-61
2023/12/12 03:21:25;;;;;;;6.65;1.52;;;;;;;5.91;100.00;96689.59;5047444;28;20041;-61
2023/12/12 03:23:52;;;;;;;4.53;1.55;;;;;;;5.89;100.00;96689.84;5043147;28;20467;-61
2023/12/12 03:26:18;;;;;;;5.55;1.63;;;;;;;5.91;100.00;96686.91;5040402;28;20434;-61
2023/12/12 03:28:45;;;;;;;6.95;1.98;;;;;;;5.93;100.00;96690.19;5043869;28;20090;-61
2023/12/12 03:31:11;;;;;;;6.75;1.58;;;;;;;5.88;100.00;96690.91;5048019;28;20608;-61
2023/12/12 03:33:38;;;;;;;5.85;1.60;;;;;;;5.86;100.00;96691.13;5049436;28;20463;-61
2023/12/12 03:36:08;;;;;;;5.88;1.55;;;;;;;5.94;100.00;96686.44;5042085;28;20496;-61
2023/12/12 03:38:35;;;;;;;4.32;1.25;;;;;;;5.96;100.00;96678.94;5036967;28;20140;-61
2023/12/12 03:41:02;;;;;;;3.88;1.08;;;;;;;6.03;100.00;96674.28;5033549;28;20642;-61
2023/12/12 03:43:28;;;;;;;4.03;1.25;;;;;;;6.03;100.00;96670.72;5044003;28;20120;-61
2023/12/12 03:45:55;;;;;;;4.47;1.50;;;;;;;5.92;100.00;96661.66;5050026;28;20036;-60
2023/12/12 03:48:21;;;;;;;3.70;1.23;;;;;;;5.82;100.00;96667.69;5042926;28;20119;-61
2023/12/12 03:50:49;;;;;;;5.93;1.40;;;;;;;5.72;100.00;96662.91;5039662;28;20041;-61
2023/12/12 03:53:16;;;;;;;3.67;1.30;;;;;;;5.60;100.00;96657.56;5041010;28;20045;-61
2023/12/12 03:55:42;;;;;;;4.47;1.27;;;;;;;5.50;100.00;96660.03;5036804;28;20056;-61
2023/12/12 03:58:09;;;;;;;4.80;1.45;;;;;;;5.39;100.00;96653.66;5048994;28;20052;-61
2023/12/12 04:00:35;;;;;;;5.68;1.67;;;;;;;5.25;100.00;96653.91;5037581;28;20040;-61
2023/12/12 04:03:02;;;;;;;4.30;1.15;;;;;;;5.15;100.00;96653.66;5041482;28;20037;-61
2023/12/12 04:05:28;;;;;;;7.38;1.45;;;;;;;5.00;100.00;96643.41;5039710;28;20091;-61
2023/12/12 04:07:55;;;;;;;6.78;1.50;;;;;;;4.88;100.00;96644.25;5056121;28;20047;-61
2023/12/12 04:10:22;;;;;;;6.65;1.70;;;;;;;4.76;100.00;96649.59;5042590;28;20043;-61
2023/12/12 04:12:48;;;;;;;8.32;1.80;;;;;;;4.62;100.00;96640.13;5043532;28;20106;-61
2023/12/12 04:15:15;;;;;;;6.00;2.00;;;;;;;4.34;100.00;96642.41;5043003;28;20090;-61
2023/12/12 04:17:42;;;;;;;4.63;1.30;;;;;;;4.20;100.00;96639.13;5047926;28;20577;-61
2023/12/12 04:20:09;;;;;;;5.05;1.80;;;;;;;4.14;100.00;96642.72;5046369;28;20045;-61
2023/12/12 04:22:36;;;;;;;5.97;1.45;;;;;;;4.21;100.00;96646.13;5046542;28;20128;-61
2023/12/12 04:25:03;;;;;;;5.00;1.40;;;;;;;4.31;100.00;96656.28;5036252;28;20100;-61
2023/12/12 04:27:31;;;;;;;3.70;1.15;;;;;;;4.26;100.00;96650.78;5045626;28;20060;-61
2023/12/12 04:29:58;;;;;;;3.92;1.40;;;;;;;4.22;100.00;96653.13;5045942;28;20055;-61
2023/12/12 04:32:24;;;;;;;2.80;1.58;;;;;;;4.02;100.00;96646.19;5046834;28;20041;-61
2023/12/12 04:34:51;;;;;;;7.50;1.60;;;;;;;3.89;100.00;96647.19;5045425;28;20049;-61
2023/12/12 04:37:17;;;;;;;5.47;1.70;;;;;;;3.79;100.00;96652.25;5042591;28;20491;-61
2023/12/12 04:39:44;;;;;;;3.88;1.33;;;;;;;3.73;100.00;96648.59;5041473;28;20056;-61
2023/12/12 04:42:13;;;;;;;8.20;1.67;;;;;;;3.70;100.00;96657.13;5043613;28;20663;-61
2023/12/12 04:44:42;;;;;;;5.13;1.73;;;;;;;3.62;100.00;96646.72;5046455;28;20043;-61
2023/12/12 04:47:09;;;;;;;7.03;1.98;;;;;;;3.56;100.00;96648.44;5044946;28;20041;-61
2023/12/12 04:49:36;;;;;;;5.03;1.80;;;;;;;3.57;100.00;96644.69;5045512;28;20130;-61
2023/12/12 04:52:04;;;;;;;5.78;1.80;;;;;;;3.49;100.00;96645.00;5044959;28;20351;-61
2023/12/12 04:54:30;;;;;;;4.18;1.70;;;;;;;3.52;100.00;96636.53;5047139;28;20075;-61
2023/12/12 04:56:58;;;;;;;7.32;2.30;;;;;;;3.50;100.00;96625.22;5048325;28;20037;-61
2023/12/12 04:59:24;;;;;;;3.75;1.77;;;;;;;3.48;100.00;96625.47;5046832;28;20059;-61
2023/12/12 05:01:51;;;;;;;4.28;1.67;;;;;;;3.49;100.00;96632.44;5050234;28;20111;-61
2023/12/12 05:04:17;;;;;;;3.90;1.63;;;;;;;3.47;100.00;96647.09;5044095;28;20053;-61
2023/12/12 05:06:46;;;;;;;4.78;1.77;;;;;;;3.55;100.00;96644.13;5048561;28;20033;-61
2023/12/12 05:09:12;;;;;;;5.18;1.77;;;;;;;3.72;100.00;96651.53;5042565;28;20037;-61
2023/12/12 05:11:39;;;;;;;6.30;2.00;;;;;;;3.93;100.00;96647.53;5045529;28;20041;-61
2023/12/12 05:14:06;;;;;;;4.40;1.90;;;;;;;4.29;100.00;96647.66;5043904;28;20041;-61
2023/12/12 05:16:32;;;;;;;5.45;1.33;;;;;;;4.61;100.00;96650.03;5043416;28;20098;-61
2023/12/12 05:18:59;;;;;;;4.55;1.40;;;;;;;4.90;100.00;96631.41;5045297;28;20072;-61
2023/12/12 05:21:26;;;;;;;4.68;1.90;;;;;;;5.02;100.00;96620.66;5046405;28;20037;-62
2023/12/12 05:23:53;;;;;;;5.45;1.55;;;;;;;5.13;100.00;96628.94;5045241;28;20060;-61
2023/12/12 05:26:20;;;;;;;3.85;1.30;;;;;;;5.28;100.00;96625.78;5044675;28;20772;-61
2023/12/12 05:28:46;;;;;;;4.22;1.75;;;;;;;5.27;100.00;96621.47;5038467;28;20041;-61
2023/12/12 05:31:13;;;;;;;4.75;1.65;;;;;;;5.42;100.00;96624.44;5044979;28;20045;-61
2023/12/12 05:33:40;;;;;;;4.63;1.20;;;;;;;5.53;100.00;96622.78;5045668;28;20045;-61
2023/12/12 05:36:07;;;;;;;5.88;1.50;;;;;;;5.59;100.00;96611.09;5046431;28;20036;-61
2023/12/12 05:38:34;;;;;;;3.55;1.08;;;;;;;5.70;100.00;96605.91;5045668;28;20588;-61
2023/12/12 05:41:06;;;;;;;4.80;1.85;;;;;;;5.63;100.00;96591.84;5048610;28;20053;-61
2023/12/12 05:43:32;;;;;;;5.05;1.73;;;;;;;5.60;100.00;96593.94;5045765;28;20642;-61
2023/12/12 05:45:59;;;;;;;3.83;1.42;;;;;;;5.65;100.00;96589.72;5040724;28;20052;-61
2023/12/12 05:48:26;;;;;;;4.78;1.45;;;;;;;5.65;100.00;96593.22;5048312;28;20040;-61
2023/12/12 05:50:52;;;;;;;5.18;1.45;;;;;;;5.70;100.00;96598.69;5045559;28;20532;-61
2023/12/12 05:53:19;;;;;;;2.92;1.50;;;;;;;5.75;100.00;96595.25;5044300;28;20063;-61
2023/12/12 05:55:45;;;;;;;2.90;1.23;;;;;;;5.83;100.00;96596.75;5033906;28;20098;-61
2023/12/12 05:58:12;;;;;;;5.75;1.60;;;;;;;5.77;100.00;96603.09;5043980;28;20052;-61
2023/12/12 06:00:39;;;;;;;5.32;1.50;;;;;;;5.73;100.00;96605.44;5053314;28;20056;-61
2023/12/12 06:03:06;;;;;;;4.22;1.50;;;;;;;5.80;100.00;96599.94;5044996;28;20048;-61
2023/12/12 06:05:33;;;;;;;3.72;1.20;;;;;;;5.90;100.00;96605.47;5041664;28;20045;-61
2023/12/12 06:07:59;;;;;;;3.85;1.20;;;;;;;6.01;100.00;96601.09;5046771;28;20053;-61
2023/12/12 06:10:27;;;;;;;2.88;1.23;;;;;;;5.91;100.00;96590.19;5039069;28;20040;-61
2023/12/12 06:12:54;;;;;;;3.72;1.27;;;;;;;5.90;100.00;96592.03;5042835;28;20045;-61
2023/12/12 06:15:20;;;;;;;5.35;1.63;;;;;;;5.95;100.00;96589.47;5043456;28;20064;-61
2023/12/12 06:17:47;;;;;;;4.72;1.40;;;;;;;5.94;100.00;96587.03;5044666;28;20040;-61
2023/12/12 06:20:14;;;;;;;5.78;1.52;;;;;;;5.89;100.00;96576.97;5040953;28;20063;-61
2023/12/12 06:22:41;;;;;;;3.83;1.50;;;;;;;5.83;100.00;96583.34;5051913;28;20115;-61
2023/12/12 06:25:08;;;;;;;2.88;1.30;;;;;;;5.78;100.00;96575.19;5045263;28;20040;-61
2023/12/12 06:27:35;;;;;;;6.68;2.03;;;;;;;5.76;100.00;96583.47;5045141;28;20128;-64
2023/12/12 06:30:02;;;;;;;5.90;1.90;;;;;;;5.73;100.00;96586.66;5043583;28;20073;-61
2023/12/12 06:32:29;;;;;;;4.93;1.52;;;;;;;5.72;100.00;96590.38;5036389;28;20473;-61
2023/12/12 06:34:56;;;;;;;5.03;1.48;;;;;;;5.74;100.00;96582.91;5040550;28;20052;-61
2023/12/12 06:37:22;;;;;;;3.78;1.27;;;;;;;5.73;100.00;96567.84;5045942;28;20102;-61
2023/12/12 06:39:49;;;;;;;7.45;1.70;;;;;;;5.78;100.00;96559.88;5042300;28;20049;-61
2023/12/12 06:42:15;;;;;;;5.65;2.00;;;;;;;5.81;100.00;96555.88;5041651;28;21037;-61
2023/12/12 06:44:42;;;;;;;4.85;2.03;;;;;;;5.85;100.00;96551.66;5041274;28;20527;-61
2023/12/12 06:47:09;;;;;;;5.53;1.70;;;;;;;5.84;100.00;96550.84;5040965;28;20666;-61
2023/12/12 06:49:35;;;;;;;3.38;1.58;;;;;;;5.83;100.00;96546.53;5043071;28;20069;-61
2023/12/12 06:52:03;;;;;;;4.00;1.67;;;;;;;5.83;100.00;96543.84;5046781;28;20052;-61
2023/12/12 06:54:30;;;;;;;7.10;1.83;;;;;;;5.84;100.00;96536.59;5041439;28;20055;-61
2023/12/12 06:56:56;;;;;;;5.30;2.15;;;;;;;5.86;100.00;96551.41;5040897;28;20037;-61
2023/12/12 06:59:23;;;;;;;4.68;1.60;;;;;;;5.90;100.00;96553.63;5044158;28;20136;-61
2023/12/12 07:01:51;;;;;;;6.57;2.25;;;;;;;5.89;100.00;96549.31;5045808;28;20048;-61
2023/12/12 07:04:17;;;;;;;7.50;2.83;;;;;;;5.88;100.00;96553.88;5045605;28;20048;-61
2023/12/12 07:06:44;;;;;;;7.88;3.00;;;;;;;5.91;100.00;96557.94;5049116;28;20037;-61
2023/12/12 07:09:12;;;;;;;3.95;1.95;;;;;;;5.97;100.00;96557.78;5041887;28;20045;-61
2023/12/12 07:11:39;;;;;;;5.40;2.30;;;;;;;5.99;100.00;96558.38;5042232;28;20067;-61
2023/12/12 07:14:05;;;;;;;4.65;2.30;;;;;;;6.02;100.00;96567.00;5040051;28;20056;-61
2023/12/12 07:16:32;;;;;;;6.40;2.35;;;;;;;6.02;100.00;96570.50;5041365;28;20037;-61
2023/12/12 07:18:58;;;;;;;6.25;3.10;;;;;;;6.02;100.00;96567.81;5047504;28;20528;-61
2023/12/12 07:21:25;;;;;;;7.60;2.80;;;;;;;6.04;100.00;96575.66;5040527;28;20144;-61
2023/12/12 07:23:53;;;;;;;6.90;1.85;;;;;;;6.14;100.00;96580.38;5046417;28;20053;-61
2023/12/12 07:26:22;;;;;;;5.25;2.03;;;;;;;6.30;100.00;96576.91;5042279;28;20046;-61
2023/12/12 07:28:49;;;;;;;5.07;1.60;;;;;;;6.23;100.00;96573.56;5041870;28;20053;-61
2023/12/12 07:31:16;;;;;;;3.80;1.33;;;;;;;6.27;100.00;96569.34;5041721;28;20040;-61
2023/12/12 07:33:43;;;;;;;4.70;1.50;;;;;;;6.20;100.00;96558.72;5041518;28;20754;-61
2023/12/12 07:36:09;;;;;;;4.32;1.75;;;;;;;6.35;100.00;96555.47;5040737;28;20518;-61
2023/12/12 07:38:36;;;;;;;3.85;1.60;;;;;;;6.34;100.00;96545.78;5035077;28;20050;-61
2023/12/12 07:41:03;;;;;;;7.22;1.85;;;;;;;6.41;100.00;96534.84;5039776;28;20064;-60
2023/12/12 07:43:29;;;;;;;9.40;1.65;;;;;;;6.36;100.00;96535.59;5046109;28;20045;-61
2023/12/12 07:45:56;;;;;;;8.80;1.83;;;;;;;6.47;100.00;96543.81;5044357;28;20056;-61
2023/12/12 07:48:22;;;;;;;3.65;1.40;;;;;;;6.36;100.00;96557.13;5040833;28;20041;-61
2023/12/12 07:50:49;;;;;;;5.07;1.67;;;;;;;6.34;100.00;96559.22;5043499;28;20045;-61
2023/12/12 07:53:16;;;;;;;6.93;1.90;;;;;;;6.33;100.00;96557.59;5037481;28;20056;-61
2023/12/12 07:55:42;;;;;;;4.00;1.42;;;;;;;6.35;100.00;96554.66;5040674;28;20170;-60
2023/12/12 07:58:09;;;;;;;4.22;1.40;;;;;;;6.34;100.00;96553.03;5046284;28;20049;-61
2023/12/12 08:00:35;;;;;;;4.05;1.90;;;;;;;6.29;100.00;96550.25;5041271;28;20073;-61
2023/12/12 08:03:03;;;;;;;3.80;1.55;;;;;;;6.20;100.00;96555.25;5038979;28;20710;-61
2023/12/12 08:05:30;;;;;;;3.38;1.63;;;;;;;6.20;100.00;96544.47;5042062;28;20053;-61
2023/12/12 08:07:59;;;;;;;3.90;1.80;;;;;;;6.23;100.00;96538.63;5040639;28;20056;-61
2023/12/12 08:10:26;;;;;;;3.85;1.75;;;;;;;6.19;100.00;96524.84;5033100;28;20102;-61
2023/12/12 08:12:53;;;;;;;3.00;1.65;;;;;;;6.17;100.00;96521.59;5043289;28;20068;-61
2023/12/12 08:15:19;;;;;;;4.55;1.60;;;;;;;6.23;100.00;96523.28;5041310;28;20045;-61
2023/12/12 08:17:46;;;;;;;3.65;1.60;;;;;;;6.31;100.00;96518.56;5042330;28;20041;-61
2023/12/12 08:20:13;;;;;;;6.07;2.55;;;;;;;6.38;100.00;96517.34;5041012;28;20060;-61
2023/12/12 08:22:39;;;;;;;5.57;2.35;;;;;;;6.42;100.00;96515.00;5039866;28;20645;-61
2023/12/12 08:25:07;;;;;;;4.18;2.22;;;;;;;6.46;100.00;96496.47;5042669;28;20041;-61
2023/12/12 08:27:34;;;;;;;8.65;2.25;;;;;;;6.54;100.00;96471.84;5040354;28;20059;-61
2023/12/12 08:30:04;;;;;;;4.55;2.10;;;;;;;6.62;100.00;96467.91;5046112;28;20048;-61
2023/12/12 08:32:31;;;;;;;6.47;2.10;;;;;;;6.71;100.00;96482.56;5040757;28;20056;-61
2023/12/12 08:34:57;;;;;;;8.52;3.28;;;;;;;6.79;100.00;96483.19;5044787;28;20087;-62
2023/12/12 08:37:24;;;;;;;8.65;2.30;;;;;;;6.78;100.00;96487.75;5046585;28;20666;-62
2023/12/12 08:39:51;;;;;;;5.65;3.25;;;;;;;6.87;100.00;96482.75;5039904;28;20056;-63
2023/12/12 08:42:17;;;;;;;5.70;2.67;;;;;;;7.00;100.00;96482.38;5040007;28;20450;-59
2023/12/12 08:44:44;;;;;;;5.53;2.60;;;;;;;7.03;100.00;96468.44;5051380;28;20743;-59
2023/12/12 08:47:10;;;;;;;5.63;2.88;;;;;;;7.10;100.00;96462.84;5043879;28;20807;-60
2023/12/12 08:49:38;;;;;;;6.57;3.33;;;;;;;7.17;100.00;96476.13;5048802;28;20060;-60
2023/12/12 08:52:06;;;;;;;7.43;2.80;;;;;;;7.22;100.00;96464.59;5046655;28;20049;-60
2023/12/12 08:54:36;;;;;;;5.70;2.95;;;;;;;7.28;100.00;96463.56;5040455;28;20107;-60
2023/12/12 08:57:03;;;;;;;6.05;2.95;;;;;;;7.35;100.00;96482.22;5041249;28;20203;-60
2023/12/12 08:59:30;;;;;;;4.90;2.70;;;;;;;7.43;100.00;96481.78;5039774;28;20049;-60
2023/12/12 09:01:57;;;;;;;4.78;2.72;;;;;;;7.57;100.00;96489.44;5046051;28;20048;-60
2023/12/12 09:04:23;;;;;;;5.28;2.25;;;;;;;7.72;100.00;96483.38;5048476;28;20037;-59
2023/12/12 09:06:50;;;;;;;5.90;2.60;;;;;;;7.67;100.00;96487.66;5044154;28;20120;-60
2023/12/12 09:09:16;;;;;;;4.30;2.40;;;;;;;7.68;100.00;96489.28;5050051;28;20098;-60
2023/12/12 09:11:45;;;;;;;5.38;2.72;;;;;;;7.56;100.00;96483.25;5048058;28;20037;-60
2023/12/12 09:14:12;;;;;;;5.53;2.50;;;;;;;7.57;100.00;96481.38;5044333;28;20045;-60
2023/12/12 09:16:39;;;;;;;5.40;2.90;;;;;;;7.52;100.00;96490.22;5045149;28;20156;-60
2023/12/12 09:19:06;;;;;;;5.05;2.70;;;;;;;7.45;100.00;96479.66;5046514;28;20102;-60
2023/12/12 09:21:33;;;;;;;5.90;2.80;;;;;;;7.43;100.00;96471.00;5047342;28;20049;-60
2023/12/12 09:23:59;;;;;;;5.70;2.78;;;;;;;7.29;100.00;96460.63;5044942;28;20657;-60
2023/12/12 09:26:26;;;;;;;8.77;2.95;;;;;;;7.41;100.00;96446.22;5046084;28;20048;-60
2023/12/12 09:28:52;;;;;;;7.75;3.10;;;;;;;7.39;100.00;96445.63;5047628;28;20052;-60
2023/12/12 09:31:26;;;;;;;7.65;2.92;;;;;;;7.44;100.00;96444.88;5045441;28;20063;-60
2023/12/12 09:33:54;;;;;;;5.85;2.90;;;;;;;7.50;100.00;96444.69;5046235;28;20036;-60
2023/12/12 09:36:21;;;;;;;6.15;2.63;;;;;;;7.66;100.00;96450.19;5045243;28;20116;-60
2023/12/12 09:38:48;;;;;;;7.80;2.53;;;;;;;7.60;100.00;96446.66;5046662;28;20045;-61
2023/12/12 09:41:20;;;;;;;5.75;3.03;;;;;;;7.59;100.00;96455.00;5052750;28;20061;-60
2023/12/12 09:43:48;;;;;;;6.22;2.72;;;;;;;7.48;100.00;96433.34;5043271;28;20140;-60
2023/12/12 09:46:20;;;;;;;6.63;2.72;;;;;;;7.42;100.00;96429.78;5044130;28;20049;-60
2023/12/12 09:48:48;;;;;;;5.45;2.90;;;;;;;7.32;100.00;96413.53;5048457;28;20044;-60
2023/12/12 09:51:15;;;;;;;5.40;2.78;;;;;;;7.33;100.00;96420.53;5046688;28;20048;-60
2023/12/12 09:53:46;;;;;;;6.38;2.85;;;;;;;7.29;100.00;96414.84;5043408;28;20037;-60
2023/12/12 09:56:17;;;;;;;4.80;2.70;;;;;;;7.26;100.00;96419.94;5045196;28;20037;-60
2023/12/12 09:58:46;;;;;;;6.55;3.03;;;;;;;7.26;100.00;96412.66;5045672;28;20509;-60
2023/12/12 10:01:14;;;;;;;5.57;3.00;;;;;;;7.22;100.00;96408.06;5043764;28;20116;-60
2023/12/12 10:03:41;;;;;;;7.25;3.03;;;;;;;7.25;100.00;96402.97;5038026;28;20067;-60
2023/12/12 10:06:09;;;;;;;5.13;2.97;;;;;;;7.29;100.00;96392.50;5047208;28;20103;-60
2023/12/12 10:08:35;;;;;;;6.03;2.60;;;;;;;7.28;100.00;96394.38;5043229;28;20737;-60
2023/12/12 10:11:05;;;;;;;5.70;2.92;;;;;;;7.37;100.00;96388.53;5046306;28;20044;-60
2023/12/12 10:13:48;;;;;;;5.95;3.28;;;;;;;7.26;100.00;96387.63;5042143;28;20056;-60
2023/12/12 10:16:15;;;;;;;7.05;3.00;;;;;;;7.26;100.00;96388.44;5041888;28;21245;-61
2023/12/12 10:18:42;;;;;;;5.82;3.28;;;;;;;7.29;100.00;96379.84;5042602;28;20037;-60
2023/12/12 10:21:18;;;;;;;5.82;2.88;;;;;;;7.23;100.00;96371.97;5044546;28;20048;-60
2023/12/12 10:23:52;;;;;;;5.25;2.85;;;;;;;7.35;100.00;96369.94;5051772;28;20146;-60
2023/12/12 10:26:29;;;;;;;5.13;3.03;;;;;;;7.34;100.00;96380.97;5044482;28;20044;-60
2023/12/12 10:28:57;;;;;;;4.03;2.10;;;;;;;7.26;100.00;96368.78;5044176;28;20462;-60
2023/12/12 10:31:24;;;;;;;4.30;2.40;;;;;;;7.25;100.00;96364.44;5046153;28;20056;-60
2023/12/12 10:33:52;;;;;;;6.70;2.38;;;;;;;7.26;100.00;96358.03;5042311;28;20129;-59
2023/12/12 10:36:20;;;;;;;5.63;2.80;;;;;;;7.28;100.00;96354.00;5043895;28;20053;-59
2023/12/12 10:38:47;;;;;;;4.30;2.30;;;;;;;7.36;100.00;96351.88;5042738;28;20040;-60
2023/12/12 10:41:21;;;;;;;4.22;2.00;;;;;;;7.37;100.00;96338.16;5040917;28;20044;-60
2023/12/12 10:43:53;;;;;;;3.63;2.08;;;;;;;7.41;100.00;96335.78;5042382;28;20045;-60
2023/12/12 10:46:19;;;;;;;3.83;1.75;;;;;;;7.54;100.00;96327.28;5042824;28;20571;-60
2023/12/12 10:48:48;;;;;;;3.72;2.03;;;;;;;7.59;100.00;96323.78;5046049;28;20120;-60
2023/12/12 10:51:19;;;;;;;4.93;1.80;;;;;;;7.67;100.00;96319.81;5041492;28;21591;-60
2023/12/12 10:53:48;;;;;;;4.75;2.40;;;;;;;7.69;100.00;96301.50;5042673;28;20052;-60
2023/12/12 10:56:15;;;;;;;2.53;1.45;;;;;;;7.75;100.00;96299.66;5047153;28;20056;-60
2023/12/12 10:58:43;;;;;;;4.57;2.08;;;;;;;7.78;100.00;96293.75;5047530;28;20041;-60
2023/12/12 11:01:13;;;;;;;4.20;2.05;;;;;;;7.77;100.00;96306.41;5041290;28;20112;-60
2023/12/12 11:03:43;;;;;;;4.55;1.67;;;;;;;7.74;100.00;96298.81;5044093;28;20078;-59
2023/12/12 11:06:10;;;;;;;3.60;2.30;;;;;;;7.76;100.00;96299.41;5042557;28;20739;-59
2023/12/12 11:08:37;;;;;;;4.60;2.08;;;;;;;7.78;100.00;96302.63;5043392;28;20059;-59
2023/12/12 11:11:09;;;;;;;3.67;1.70;;;;;;;7.85;100.00;96318.56;5043717;28;20056;-60
2023/12/12 11:13:39;;;;;;;4.32;2.50;;;;;;;7.86;100.00;96319.38;5040413;28;20041;-60
2023/12/12 11:16:07;;;;;;;5.07;2.75;;;;;;;7.90;100.00;96313.22;5035362;28;20056;-60
2023/12/12 11:18:39;;;;;;;4.13;2.20;;;;;;;7.93;100.00;96310.00;5044926;28;20519;-60
2023/12/12 11:21:06;;;;;;;3.78;1.63;;;;;;;7.92;100.00;96302.97;5044237;28;20419;-60
2023/12/12 11:23:52;;;;;;;4.80;1.40;;;;;;;8.01;100.00;96289.00;5043236;28;20127;-60
2023/12/12 11:26:22;;;;;;;2.75;1.15;;;;;;;8.10;100.00;96284.72;5044743;28;20400;-60
2023/12/12 11:28:49;;;;;;;5.85;1.73;;;;;;;8.17;100.00;96277.22;5042165;28;20090;-60
2023/12/12 11:31:27;;;;;;;3.33;1.67;;;;;;;8.07;100.00;96269.91;5050789;28;20055;-60
2023/12/12 11:34:04;;;;;;;2.95;1.40;;;;;;;8.10;100.00;96262.38;5043924;28;20099;-60